Terminal Aerodrome Forecast
Issued by NWS Shreveport, LA

Home | Current Version | Previous Version | Text Only | Print | Product List | Glossary On
Versions: 1 2 3 4 5 6 7 8 9 10 11 12 13 14 15 16 17
000
FTUS44 KSHV 301145
TAFTXK
TAF
KTXK 301145Z 3012/3112 00000KT P6SM SKC
      TEMPO 3015/3018 26007KT 3SM -TSRA BR BKN030CB
     FM301800 29008KT P6SM SCT030 BKN050
     FM302100 30007KT P6SM BKN050
     FM310000 32007KT P6SM SKC=

USA.gov is the U.S. government's official web portal to all federal, state and local government web resources and services.